Time;durP1;ratioP1;P1;durP2;ratioP2;P2;SDS_P1;SDS_P2;PMS_P1;PMS_P2;Temp;Humidity;BMP_temperature;BMP_pressure;BME280_temperature;BME280_humidity;BME280_pressure;Samples;Min_cycle;Max_cycle;Signal;HPM_P1;HPM_P2
2022/07/16 05:18:15;;;;;;;0.88;0.68;;;19.70;68.70;;;;;;6193187;22;43376;-57
2022/07/16 05:20:56;;;;;;;0.80;0.77;;;19.80;68.60;;;;;;6142903;23;43419;-58
2022/07/16 05:23:53;;;;;;;1.40;0.98;;;19.80;68.20;;;;;;6149051;23;43553;-58
2022/07/16 05:26:29;;;;;;;1.73;0.90;;;19.90;67.70;;;;;;6143141;23;44347;-58
2022/07/16 05:29:12;;;;;;;1.00;0.90;;;20.00;67.60;;;;;;6191982;23;43361;-58
2022/07/16 05:32:44;;;;;;;2.15;0.93;;;20.10;67.40;;;;;;6188922;23;43395;-58
2022/07/16 05:35:15;;;;;;;1.85;1.17;;;20.20;67.20;;;;;;6166789;23;43582;-57
2022/07/16 05:37:53;;;;;;;1.80;1.00;;;20.20;66.80;;;;;;6165845;23;44021;-58
2022/07/16 05:40:26;;;;;;;1.25;0.90;;;20.30;66.70;;;;;;6166601;23;43483;-58
2022/07/16 05:42:58;;;;;;;1.33;0.90;;;20.30;66.50;;;;;;6143247;23;43486;-58
2022/07/16 05:45:40;;;;;;;1.73;0.93;;;20.30;66.50;;;;;;6167960;23;43579;-57
2022/07/16 05:48:22;;;;;;;1.90;0.82;;;20.30;66.20;;;;;;6142863;23;43816;-58
2022/07/16 05:50:52;;;;;;;1.60;1.00;;;20.40;66.00;;;;;;6166058;23;43466;-58
2022/07/16 05:53:24;;;;;;;1.75;0.68;;;20.40;66.00;;;;;;6142257;23;43393;-58
2022/07/16 05:55:57;;;;;;;1.30;0.90;;;20.40;66.10;;;;;;6142767;23;43517;-57
2022/07/16 05:58:29;;;;;;;1.88;1.02;;;20.40;66.00;;;;;;6167095;23;44587;-57
2022/07/16 06:01:19;;;;;;;2.05;0.80;;;20.50;66.00;;;;;;6144246;23;43616;-58
2022/07/16 06:04:00;;;;;;;0.82;0.77;;;20.50;65.70;;;;;;6167838;23;43559;-58
2022/07/16 06:06:45;;;;;;;1.77;0.98;;;20.50;65.60;;;;;;6192635;23;43532;-58
2022/07/16 06:14:36;;;;;;;1.27;0.80;;;20.50;65.50;;;;;;6189752;23;43460;-58
2022/07/16 06:17:30;;;;;;;1.67;0.93;;;20.50;65.60;;;;;;6166032;23;43313;-58
2022/07/16 06:21:08;;;;;;;2.13;1.00;;;20.50;65.50;;;;;;6186861;23;43492;-56
2022/07/16 06:23:48;;;;;;;2.03;0.85;;;20.50;65.40;;;;;;6161679;23;44348;-58
2022/07/16 06:26:56;;;;;;;1.23;0.90;;;20.50;65.50;;;;;;6122580;22;43532;-57
2022/07/16 06:29:23;;;;;;;1.40;0.82;;;20.50;65.30;;;;;;6242771;22;43396;-65
2022/07/16 06:31:50;;;;;;;0.88;0.80;;;20.50;65.30;;;;;;6243267;22;43542;-64
2022/07/16 06:34:17;;;;;;;1.15;1.05;;;20.60;65.20;;;;;;6243152;22;44665;-65
2022/07/16 06:36:45;;;;;;;1.00;0.70;;;20.60;65.20;;;;;;6242570;22;44109;-63
2022/07/16 06:39:12;;;;;;;2.30;0.90;;;20.60;65.10;;;;;;6243389;22;43472;-64
2022/07/16 06:41:39;;;;;;;1.00;0.90;;;20.60;65.00;;;;;;6242434;22;43562;-64
2022/07/16 06:44:09;;;;;;;0.70;0.60;;;20.60;65.00;;;;;;6242885;22;45101;-64
2022/07/16 06:46:36;;;;;;;1.08;0.80;;;20.60;65.00;;;;;;6242721;22;43357;-64
2022/07/16 06:49:05;;;;;;;2.00;0.73;;;20.60;65.00;;;;;;6242848;22;43452;-63
2022/07/16 06:51:32;;;;;;;1.15;0.90;;;20.60;64.90;;;;;;6243062;22;43555;-64
2022/07/16 06:53:59;;;;;;;0.88;0.80;;;20.60;64.90;;;;;;6243152;22;44922;-64
2022/07/16 06:56:27;;;;;;;1.25;0.82;;;20.60;65.50;;;;;;6242226;22;43426;-64
2022/07/16 06:58:54;;;;;;;1.67;0.88;;;20.60;64.90;;;;;;6243678;22;43446;-64
2022/07/16 07:01:23;;;;;;;0.98;0.65;;;20.60;64.80;;;;;;6243403;22;43522;-64
2022/07/16 07:03:50;;;;;;;0.70;0.70;;;20.60;64.70;;;;;;6241669;22;44002;-64
2022/07/16 07:06:18;;;;;;;0.80;0.80;;;20.60;64.70;;;;;;6242964;22;43417;-64
2022/07/16 07:08:45;;;;;;;2.13;1.05;;;20.60;64.70;;;;;;6243294;22;43366;-64
2022/07/16 07:11:18;;;;;;;1.42;0.80;;;20.60;64.70;;;;;;6242691;22;43429;-64
2022/07/16 07:13:46;;;;;;;1.45;0.88;;;20.60;64.70;;;;;;6242911;22;44043;-63
2022/07/16 07:16:13;;;;;;;1.25;0.70;;;20.60;64.70;;;;;;6242790;22;43774;-63
2022/07/16 07:18:40;;;;;;;1.20;0.70;;;20.60;64.60;;;;;;6242344;22;44007;-63
2022/07/16 07:21:08;;;;;;;0.93;0.70;;;20.60;64.60;;;;;;6242760;22;43509;-65
2022/07/16 07:23:36;;;;;;;0.50;0.50;;;20.60;64.50;;;;;;6242808;22;44061;-64
2022/07/16 07:26:03;;;;;;;0.73;0.70;;;20.60;64.50;;;;;;6242147;22;43324;-64
2022/07/16 07:28:31;;;;;;;1.05;0.60;;;20.60;64.40;;;;;;6242684;22;43438;-64
2022/07/16 07:30:58;;;;;;;1.00;0.80;;;20.60;64.50;;;;;;6242760;22;43550;-64
2022/07/16 07:33:26;;;;;;;1.35;0.80;;;20.60;64.50;;;;;;6242865;22;44147;-64
2022/07/16 07:35:53;;;;;;;1.00;0.70;;;20.60;64.50;;;;;;6242659;22;43905;-64
2022/07/16 07:38:21;;;;;;;0.95;0.77;;;20.60;65.10;;;;;;6242443;22;43407;-62
2022/07/16 07:40:48;;;;;;;0.65;0.63;;;20.60;64.50;;;;;;6243180;22;43883;-64
2022/07/16 07:43:16;;;;;;;0.50;0.50;;;20.60;64.50;;;;;;6241935;22;44312;-63
2022/07/16 07:45:44;;;;;;;1.52;0.60;;;20.60;64.50;;;;;;6241727;22;43392;-64
2022/07/16 07:48:11;;;;;;;0.52;0.52;;;20.60;64.50;;;;;;6243217;22;43428;-64
2022/07/16 07:50:39;;;;;;;0.73;0.73;;;20.60;64.50;;;;;;6243138;22;43449;-64
2022/07/16 07:53:07;;;;;;;1.88;0.80;;;20.60;64.40;;;;;;6242306;22;44210;-64
2022/07/16 07:55:34;;;;;;;0.93;0.65;;;20.60;64.50;;;;;;6242797;22;44117;-64
2022/07/16 07:58:02;;;;;;;0.60;0.60;;;20.60;64.70;;;;;;6243404;22;43420;-63
2022/07/16 08:00:30;;;;;;;0.70;0.70;;;20.60;64.50;;;;;;6242372;22;43562;-63
2022/07/16 08:02:58;;;;;;;0.77;0.60;;;20.60;64.60;;;;;;6243198;22;44030;-64
2022/07/16 08:05:25;;;;;;;1.35;0.80;;;20.60;64.50;;;;;;6242395;22;43472;-64
2022/07/16 08:07:53;;;;;;;2.17;0.77;;;20.70;64.50;;;;;;6242669;22;43503;-64
2022/07/16 08:10:21;;;;;;;0.82;0.73;;;20.70;64.50;;;;;;6242941;22;43542;-64
2022/07/16 08:12:48;;;;;;;0.70;0.70;;;20.70;64.50;;;;;;6242924;22;44150;-63
2022/07/16 08:15:15;;;;;;;2.58;0.80;;;20.70;65.20;;;;;;6241615;22;43423;-64
2022/07/16 08:17:42;;;;;;;1.73;0.77;;;20.70;64.40;;;;;;6243004;22;43755;-63
2022/07/16 08:20:11;;;;;;;1.58;0.75;;;20.70;65.20;;;;;;6242045;22;43495;-64
2022/07/16 08:22:38;;;;;;;0.85;0.60;;;20.70;64.50;;;;;;6242405;22;44122;-63
2022/07/16 08:27:53;;;;;;;1.45;0.70;;;20.70;64.50;;;;;;6241933;22;43395;-63
2022/07/16 08:30:20;;;;;;;1.65;1.00;;;20.70;64.50;;;;;;6242827;22;43426;-64
2022/07/16 08:32:48;;;;;;;1.48;0.90;;;20.70;64.50;;;;;;6243124;22;45091;-64
2022/07/16 08:35:15;;;;;;;1.38;0.73;;;20.70;64.50;;;;;;6241736;22;43921;-64
2022/07/16 08:37:45;;;;;;;0.73;0.63;;;20.70;64.40;;;;;;6242401;22;43419;-63
2022/07/16 08:40:19;;;;;;;1.48;0.90;;;20.70;64.40;;;;;;6242532;22;43545;-63
2022/07/16 08:42:47;;;;;;;1.48;0.75;;;20.70;64.40;;;;;;6242538;22;45103;-63
2022/07/16 08:45:17;;;;;;;1.85;0.70;;;20.70;64.50;;;;;;6242446;22;43415;-63
2022/07/16 08:47:44;;;;;;;1.23;1.13;;;20.70;64.50;;;;;;6242542;22;43414;-64
2022/07/16 08:50:14;;;;;;;1.85;0.82;;;20.70;64.70;;;;;;6241503;22;43640;-63
2022/07/16 08:52:43;;;;;;;1.23;0.80;;;20.70;64.50;;;;;;6242622;22;44750;-63
2022/07/16 08:55:11;;;;;;;1.38;0.90;;;20.70;64.60;;;;;;6242226;22;43364;-64
2022/07/16 08:57:39;;;;;;;1.45;0.80;;;20.70;64.60;;;;;;6241436;22;43412;-64
2022/07/16 09:00:11;;;;;;;1.80;0.80;;;20.70;64.70;;;;;;6242573;22;44055;-63
2022/07/16 09:02:39;;;;;;;0.88;0.60;;;20.70;64.50;;;;;;6242292;22;44746;-64
2022/07/16 09:05:08;;;;;;;0.95;0.63;;;20.70;64.40;;;;;;6241875;22;44042;-64
2022/07/16 09:07:35;;;;;;;0.77;0.70;;;20.70;64.50;;;;;;6242785;22;43833;-64
2022/07/16 09:10:08;;;;;;;2.17;0.90;;;20.70;64.50;;;;;;6242288;22;43523;-64
2022/07/16 09:12:46;;;;;;;1.17;0.68;;;20.70;64.50;;;;;;6242736;22;44553;-63
2022/07/16 09:15:36;;;;;;;1.23;0.75;;;20.80;64.60;;;;;;6215969;22;43370;-63
2022/07/16 09:18:20;;;;;;;3.00;1.00;;;20.80;64.50;;;;;;6242000;22;43423;-63
2022/07/16 09:20:52;;;;;;;0.90;0.80;;;20.80;64.50;;;;;;6242844;22;43412;-64
2022/07/16 09:23:41;;;;;;;1.02;0.73;;;20.80;64.50;;;;;;6242889;22;43872;-64
2022/07/16 09:26:11;;;;;;;1.45;0.80;;;20.80;64.50;;;;;;6242520;22;43391;-64
2022/07/16 09:28:38;;;;;;;0.85;0.60;;;20.80;64.50;;;;;;6242399;22;43459;-64
2022/07/16 09:31:06;;;;;;;1.50;0.70;;;20.80;64.50;;;;;;6242093;22;43454;-63
2022/07/16 09:33:33;;;;;;;1.15;0.70;;;20.80;64.50;;;;;;6242568;22;44086;-64
2022/07/16 09:36:19;;;;;;;1.33;0.88;;;20.80;64.40;;;;;;6242510;22;44003;-63
2022/07/16 09:38:48;;;;;;;0.57;0.57;;;20.90;64.50;;;;;;6241780;22;43352;-64
2022/07/16 09:41:17;;;;;;;1.25;0.88;;;20.80;64.40;;;;;;6242131;22;43543;-64
2022/07/16 09:43:45;;;;;;;1.50;0.90;;;20.80;64.50;;;;;;6241849;22;45387;-64
2022/07/16 09:46:23;;;;;;;1.38;0.82;;;20.90;64.50;;;;;;6241450;22;43398;-63
2022/07/16 09:48:51;;;;;;;1.58;0.77;;;20.90;64.40;;;;;;6242628;22;43399;-64
2022/07/16 09:51:26;;;;;;;1.80;0.80;;;20.80;64.40;;;;;;6243485;22;43616;-64
2022/07/16 09:53:55;;;;;;;1.20;0.70;;;20.80;64.30;;;;;;6243274;22;44024;-65
2022/07/16 09:56:25;;;;;;;1.88;0.85;;;20.90;64.50;;;;;;6243631;22;44002;-64
2022/07/16 09:58:55;;;;;;;1.00;0.75;;;20.90;64.40;;;;;;6243508;22;43463;-64
2022/07/16 10:01:26;;;;;;;1.73;0.88;;;20.90;64.40;;;;;;6243270;22;43471;-65
2022/07/16 10:03:54;;;;;;;0.98;0.88;;;20.90;64.40;;;;;;6243522;22;44156;-63
2022/07/16 10:06:21;;;;;;;2.70;0.90;;;20.90;64.40;;;;;;6242826;22;43392;-64
2022/07/16 10:08:49;;;;;;;1.15;0.80;;;20.90;64.40;;;;;;6243626;22;43341;-64
2022/07/16 10:11:17;;;;;;;1.08;0.85;;;20.90;64.40;;;;;;6243637;22;43594;-64
2022/07/16 10:13:45;;;;;;;2.20;1.05;;;20.90;64.40;;;;;;6242921;22;44002;-64
2022/07/16 10:16:13;;;;;;;1.50;0.70;;;20.90;64.40;;;;;;6243341;22;43738;-65
2022/07/16 10:18:43;;;;;;;1.88;0.70;;;21.00;64.30;;;;;;6243644;22;43373;-64
2022/07/16 10:21:14;;;;;;;2.65;1.13;;;21.00;64.40;;;;;;6242976;22;43403;-64
2022/07/16 10:23:43;;;;;;;;;;;21.00;64.40;;;;;;6243588;22;43747;-64
2022/07/16 10:26:30;;;;;;;3.28;1.48;;;21.00;64.40;;;;;;6243301;22;43813;-65
2022/07/16 10:28:57;;;;;;;2.83;1.60;;;21.00;64.40;;;;;;6243281;22;43372;-63
2022/07/16 10:31:35;;;;;;;5.25;1.77;;;21.00;64.40;;;;;;6243340;22;43547;-63
2022/07/16 10:34:14;;;;;;;4.25;1.65;;;21.00;64.40;;;;;;6242775;22;44757;-63
2022/07/16 10:36:50;;;;;;;3.50;1.95;;;21.00;64.30;;;;;;6242922;22;43468;-63
2022/07/16 10:39:18;;;;;;;4.80;1.80;;;21.00;64.60;;;;;;6243539;22;43355;-63
2022/07/16 10:41:51;;;;;;;4.22;2.03;;;21.10;64.70;;;;;;6242451;22;44017;-63
2022/07/16 10:44:21;;;;;;;4.82;1.92;;;21.10;64.80;;;;;;6242977;22;43924;-64
2022/07/16 10:46:59;;;;;;;5.88;2.10;;;21.10;64.50;;;;;;6243156;22;43415;-63
2022/07/16 10:49:29;;;;;;;5.50;2.28;;;21.10;64.60;;;;;;6242744;22;43362;-63
2022/07/16 10:52:08;;;;;;;4.15;2.15;;;21.10;64.60;;;;;;6243738;22;43483;-64
2022/07/16 10:54:37;;;;;;;5.10;2.65;;;21.10;64.40;;;;;;6215442;22;44022;-63
2022/07/16 10:57:06;;;;;;;6.10;2.20;;;21.20;64.50;;;;;;6242333;22;44095;-64
2022/07/16 10:59:43;;;;;;;3.20;1.83;;;21.20;64.60;;;;;;6243156;22;43457;-63
2022/07/16 11:02:12;;;;;;;5.50;1.90;;;21.20;64.50;;;;;;6242377;22;43456;-63
2022/07/16 11:04:48;;;;;;;3.53;1.83;;;21.20;64.50;;;;;;6242504;22;43763;-63
2022/07/16 11:07:20;;;;;;;3.08;1.73;;;21.30;64.50;;;;;;6243425;22;43931;-63
2022/07/16 11:09:52;;;;;;;3.97;1.80;;;21.30;64.40;;;;;;6242760;22;43335;-63
2022/07/16 11:12:25;;;;;;;3.05;2.00;;;21.30;64.30;;;;;;6243638;22;43534;-64
2022/07/16 11:14:54;;;;;;;3.30;2.08;;;21.30;64.20;;;;;;6243374;22;44985;-64
2022/07/16 11:17:24;;;;;;;2.65;1.85;;;21.30;64.30;;;;;;6242093;22;43969;-63
2022/07/16 11:19:55;;;;;;;2.97;1.80;;;21.30;64.40;;;;;;6243086;22;43475;-63
2022/07/16 11:22:27;;;;;;;3.92;2.00;;;21.40;64.50;;;;;;6242489;22;43934;-64
2022/07/16 11:24:58;;;;;;;3.92;2.03;;;21.40;64.50;;;;;;6242228;22;44908;-63
2022/07/16 11:27:28;;;;;;;3.13;1.58;;;21.40;64.40;;;;;;6242733;22;43928;-64
2022/07/16 11:30:05;;;;;;;3.70;1.95;;;21.40;64.40;;;;;;6244036;22;43388;-63
2022/07/16 11:32:41;;;;;;;4.15;1.70;;;21.50;65.00;;;;;;6243450;22;43382;-63
2022/07/16 11:35:09;;;;;;;2.85;1.60;;;21.50;64.30;;;;;;6243131;22;44677;-64
2022/07/16 11:37:53;;;;;;;2.70;1.48;;;21.50;64.30;;;;;;6242357;22;44132;-64
2022/07/16 11:40:35;;;;;;;3.53;1.70;;;21.50;64.30;;;;;;6243096;22;43468;-64
2022/07/16 11:43:03;;;;;;;5.25;1.60;;;21.50;64.10;;;;;;6243637;22;43428;-63
2022/07/16 11:45:40;;;;;;;3.75;1.63;;;21.60;64.20;;;;;;6242061;22;44939;-64
2022/07/16 11:48:09;;;;;;;2.17;1.80;;;21.60;64.30;;;;;;6243277;22;43393;-64
2022/07/16 11:50:37;;;;;;;2.92;1.40;;;21.60;64.10;;;;;;6241628;22;43349;-64
2022/07/16 11:53:05;;;;;;;3.30;1.67;;;21.60;63.90;;;;;;6240307;22;43453;-65
2022/07/16 11:55:32;;;;;;;3.28;1.80;;;21.60;64.00;;;;;;6241865;22;44661;-64
2022/07/16 11:58:00;;;;;;;2.63;1.60;;;21.70;64.00;;;;;;6242103;22;44065;-64
2022/07/16 12:00:40;;;;;;;2.83;1.70;;;21.70;63.90;;;;;;6241368;22;43354;-64
2022/07/16 12:03:11;;;;;;;3.13;1.38;;;21.70;63.80;;;;;;6215123;22;43429;-64
2022/07/16 12:05:38;;;;;;;2.92;1.65;;;21.70;63.80;;;;;;6240712;22;44020;-64
2022/07/16 12:08:08;;;;;;;4.05;1.60;;;21.70;63.80;;;;;;6242069;22;44017;-64
2022/07/16 12:11:00;;;;;;;2.30;1.60;;;21.70;63.80;;;;;;6241367;22;43399;-64
2022/07/16 12:13:28;;;;;;;2.88;1.60;;;21.70;63.80;;;;;;6241394;22;43514;-64
2022/07/16 12:16:00;;;;;;;2.33;1.25;;;21.80;63.80;;;;;;6242125;22;45238;-64
2022/07/16 12:18:28;;;;;;;2.83;1.50;;;21.80;63.70;;;;;;6242952;22;43917;-64
2022/07/16 12:21:26;;;;;;;2.90;1.40;;;21.80;63.60;;;;;;6241783;22;43489;-64
2022/07/16 12:23:53;;;;;;;2.85;1.30;;;21.80;63.60;;;;;;6243261;22;43467;-65
2022/07/16 12:26:30;;;;;;;2.33;1.35;;;21.80;63.60;;;;;;6241513;22;43557;-64
2022/07/16 12:28:59;;;;;;;3.35;1.60;;;21.90;63.50;;;;;;6242841;22;43457;-64
2022/07/16 12:31:28;;;;;;;2.20;1.40;;;21.90;63.60;;;;;;6242053;22;43447;-64
2022/07/16 12:33:57;;;;;;;2.88;1.25;;;21.90;63.50;;;;;;6242471;22;43490;-64
2022/07/16 12:36:34;;;;;;;1.77;1.20;;;21.90;63.60;;;;;;6241895;22;44021;-64
2022/07/16 12:39:08;;;;;;;1.63;1.20;;;21.90;63.50;;;;;;6243095;22;43367;-64
2022/07/16 12:41:45;;;;;;;2.13;1.60;;;21.90;63.50;;;;;;6242319;22;43466;-64
2022/07/16 12:44:16;;;;;;;2.50;1.45;;;21.90;63.50;;;;;;6243283;22;43443;-64
2022/07/16 12:46:49;;;;;;;2.00;1.30;;;22.00;63.50;;;;;;6242668;22;45281;-64
2022/07/16 12:49:25;;;;;;;1.13;1.00;;;22.00;63.40;;;;;;6243107;22;43908;-65
2022/07/16 12:51:56;;;;;;;1.48;1.20;;;22.00;63.30;;;;;;6243501;22;43426;-64
2022/07/16 12:54:24;;;;;;;2.67;1.40;;;22.00;63.10;;;;;;6243256;22;43522;-64
2022/07/16 12:59:41;;;;;;;3.10;1.30;;;22.10;63.20;;;;;;6243317;22;43966;-64
2022/07/16 13:02:08;;;;;;;2.42;1.50;;;22.10;63.10;;;;;;6242442;22;43403;-64
2022/07/16 13:04:36;;;;;;;1.95;1.25;;;22.10;63.00;;;;;;6215241;22;43576;-64
2022/07/16 13:07:03;;;;;;;2.38;1.30;;;22.20;63.20;;;;;;6242607;22;43732;-64
2022/07/16 13:09:33;;;;;;;1.55;1.10;;;22.10;63.00;;;;;;6242355;22;43436;-64
2022/07/16 13:12:01;;;;;;;2.22;1.15;;;22.20;62.90;;;;;;6243607;22;43544;-64
2022/07/16 13:14:28;;;;;;;1.20;1.10;;;22.20;63.20;;;;;;6243402;22;43523;-63
2022/07/16 13:16:55;;;;;;;1.20;0.98;;;22.20;63.00;;;;;;6242681;22;45544;-64
2022/07/16 13:19:23;;;;;;;1.45;1.00;;;22.20;63.00;;;;;;6242932;22;44296;-64
2022/07/16 13:21:51;;;;;;;2.55;1.13;;;22.30;62.90;;;;;;6242854;22;43932;-64
2022/07/16 13:24:18;;;;;;;1.63;1.00;;;22.20;63.00;;;;;;6242078;22;43568;-64
2022/07/16 13:26:45;;;;;;;2.47;1.13;;;22.30;63.10;;;;;;6243414;22;43911;-64
2022/07/16 13:29:33;;;;;;;2.20;1.30;;;22.30;63.00;;;;;;6243760;22;43415;-64
2022/07/16 13:32:00;;;;;;;1.77;1.15;;;22.30;62.90;;;;;;6245173;22;43395;-64
2022/07/16 13:34:28;;;;;;;1.38;1.02;;;22.30;63.10;;;;;;6243783;22;43485;-64
2022/07/16 13:36:55;;;;;;;1.88;1.10;;;22.40;63.10;;;;;;6243595;22;43764;-65
2022/07/16 13:39:23;;;;;;;1.95;1.20;;;22.30;62.90;;;;;;6244043;22;44038;-64
2022/07/16 13:41:50;;;;;;;1.70;1.20;;;22.30;63.00;;;;;;6244217;22;43412;-64
2022/07/16 13:44:17;;;;;;;2.13;1.08;;;22.40;62.90;;;;;;6216374;22;43557;-64
2022/07/16 13:46:46;;;;;;;2.05;1.10;;;22.40;62.90;;;;;;6244046;22;44683;-64
2022/07/16 13:49:14;;;;;;;1.77;0.95;;;22.40;63.00;;;;;;6243996;22;44204;-64
2022/07/16 13:51:42;;;;;;;1.10;1.00;;;22.40;62.90;;;;;;6216135;22;43411;-64
2022/07/16 13:54:12;;;;;;;1.52;1.05;;;22.50;63.00;;;;;;6244130;22;43443;-65
2022/07/16 13:56:39;;;;;;;1.55;0.88;;;22.50;62.80;;;;;;6243736;22;43749;-64
2022/07/16 13:59:07;;;;;;;1.30;1.20;;;22.50;63.00;;;;;;6242955;22;43585;-64
2022/07/16 14:01:35;;;;;;;1.67;1.00;;;22.50;62.80;;;;;;6244443;22;43426;-64
2022/07/16 14:04:05;;;;;;;2.13;1.10;;;22.50;62.90;;;;;;6244677;22;43391;-64
2022/07/16 14:06:33;;;;;;;2.60;0.98;;;22.60;63.00;;;;;;6243243;22;44160;-64
2022/07/16 14:09:01;;;;;;;2.25;1.00;;;22.60;62.90;;;;;;6244392;22;43460;-64
2022/07/16 14:11:28;;;;;;;1.88;1.00;;;22.60;62.90;;;;;;6216358;22;44089;-64
2022/07/16 14:13:56;;;;;;;1.58;0.98;;;22.60;62.80;;;;;;6243831;22;43408;-64
2022/07/16 14:16:24;;;;;;;2.03;0.85;;;22.60;62.80;;;;;;6243233;22;44724;-64
2022/07/16 14:18:51;;;;;;;1.88;1.00;;;22.70;62.70;;;;;;6243845;22;44037;-64
2022/07/16 14:21:19;;;;;;;1.83;1.33;;;22.70;62.80;;;;;;6244023;22;43399;-64
2022/07/16 14:23:47;;;;;;;1.38;0.80;;;22.70;62.70;;;;;;6244201;22;43463;-64
2022/07/16 14:26:14;;;;;;;1.98;0.82;;;22.70;62.70;;;;;;6243032;22;43991;-65
2022/07/16 14:28:42;;;;;;;1.42;0.93;;;22.70;62.70;;;;;;6217248;22;43354;-64
2022/07/16 14:31:09;;;;;;;1.13;0.80;;;22.80;62.70;;;;;;6243803;22;43392;-64
2022/07/16 14:33:36;;;;;;;1.90;0.90;;;22.80;62.70;;;;;;6243563;22;43465;-64
2022/07/16 14:36:04;;;;;;;2.58;1.10;;;22.80;62.70;;;;;;6243530;22;45019;-64
2022/07/16 14:38:31;;;;;;;1.65;0.80;;;22.80;62.70;;;;;;6244159;22;43963;-64
2022/07/16 14:40:58;;;;;;;1.35;0.88;;;22.80;62.50;;;;;;6242402;22;43455;-64
2022/07/16 14:43:26;;;;;;;1.30;0.90;;;22.80;62.60;;;;;;6244422;22;43456;-64
2022/07/16 14:45:53;;;;;;;1.45;1.08;;;22.80;62.50;;;;;;6243777;22;44957;-64
2022/07/16 14:48:20;;;;;;;1.33;0.80;;;22.90;62.50;;;;;;6242856;22;43915;-64
2022/07/16 14:50:48;;;;;;;1.63;0.88;;;22.90;62.50;;;;;;6243974;22;43376;-64
2022/07/16 14:53:15;;;;;;;0.88;0.75;;;22.90;62.50;;;;;;6244501;22;43559;-64
2022/07/16 14:55:43;;;;;;;2.38;1.00;;;22.90;62.40;;;;;;6242039;22;44321;-65
2022/07/16 14:58:10;;;;;;;1.48;1.05;;;22.90;62.40;;;;;;6243928;22;43416;-64
2022/07/16 15:00:43;;;;;;;1.10;1.00;;;22.90;62.50;;;;;;6242599;22;43401;-64
2022/07/16 15:03:11;;;;;;;2.60;1.00;;;22.90;62.50;;;;;;6216765;22;43470;-65
2022/07/16 15:05:39;;;;;;;3.17;1.00;;;22.90;62.70;;;;;;6243227;22;43845;-65
2022/07/16 15:08:07;;;;;;;2.50;0.88;;;23.00;62.70;;;;;;6243115;22;45200;-64
2022/07/16 15:10:35;;;;;;;1.13;0.82;;;23.00;62.60;;;;;;6243380;22;43410;-64
2022/07/16 15:13:04;;;;;;;1.38;0.90;;;23.00;62.50;;;;;;6244642;22;43476;-64
2022/07/16 15:15:32;;;;;;;1.60;0.90;;;23.00;62.50;;;;;;6242737;22;44920;-64
2022/07/16 15:17:59;;;;;;;2.25;0.90;;;23.00;62.50;;;;;;6243852;22;43695;-64
2022/07/16 15:20:27;;;;;;;2.22;0.90;;;23.10;62.60;;;;;;6243931;22;43399;-64
2022/07/16 15:22:54;;;;;;;1.90;0.90;;;23.10;62.50;;;;;;6244166;22;43368;-64
2022/07/16 15:25:21;;;;;;;1.88;0.77;;;23.00;62.40;;;;;;6243629;22;44667;-64
2022/07/16 15:27:49;;;;;;;1.48;0.60;;;23.10;62.50;;;;;;6243582;22;43438;-64
2022/07/16 15:30:16;;;;;;;2.38;0.68;;;23.10;62.50;;;;;;6242750;22;43451;-64
2022/07/16 15:32:44;;;;;;;1.63;0.80;;;23.10;62.40;;;;;;6244004;22;43553;-64
2022/07/16 15:35:12;;;;;;;1.25;0.88;;;23.10;62.40;;;;;;6243701;22;44968;-64
2022/07/16 15:37:39;;;;;;;0.90;0.80;;;23.10;62.40;;;;;;6242719;22;43478;-64
2022/07/16 15:40:11;;;;;;;0.85;0.68;;;23.20;62.40;;;;;;6243950;22;43452;-64
2022/07/16 15:42:38;;;;;;;1.05;0.75;;;23.10;62.30;;;;;;6244232;22;43406;-64
2022/07/16 15:45:06;;;;;;;2.13;0.90;;;23.20;62.40;;;;;;6242647;22;43763;-64
2022/07/16 15:47:34;;;;;;;2.78;0.80;;;23.20;62.30;;;;;;6242923;22;43960;-64
2022/07/16 15:50:02;;;;;;;2.20;0.73;;;23.20;62.30;;;;;;6243972;22;43376;-65
2022/07/16 15:52:30;;;;;;;1.83;0.93;;;23.20;62.30;;;;;;6243235;22;43510;-64
2022/07/16 15:54:57;;;;;;;1.02;0.82;;;23.20;62.40;;;;;;6243661;22;43770;-65
2022/07/16 15:57:24;;;;;;;1.08;0.98;;;23.20;62.30;;;;;;6242491;22;44342;-64
2022/07/16 15:59:52;;;;;;;0.90;0.75;;;23.20;62.40;;;;;;6243305;22;43379;-64
2022/07/16 16:02:19;;;;;;;0.95;0.73;;;23.10;62.30;;;;;;6244101;22;43510;-65
2022/07/16 16:04:47;;;;;;;0.95;0.70;;;23.10;62.40;;;;;;6242733;22;44000;-65
2022/07/16 16:07:14;;;;;;;1.77;0.90;;;23.10;62.40;;;;;;6242643;22;43965;-64
2022/07/16 16:09:42;;;;;;;2.10;1.08;;;23.10;62.40;;;;;;6243316;22;43353;-64
2022/07/16 16:12:09;;;;;;;2.45;1.00;;;23.10;62.50;;;;;;6242539;22;44023;-64
2022/07/16 16:14:37;;;;;;;0.73;0.73;;;23.10;62.50;;;;;;6241980;22;43752;-64
2022/07/16 16:17:05;;;;;;;0.60;0.60;;;23.00;62.50;;;;;;6242881;22;43914;-65
2022/07/16 16:19:32;;;;;;;1.27;0.80;;;23.00;63.20;;;;;;6242137;22;43443;-64
2022/07/16 16:22:01;;;;;;;1.42;0.85;;;23.00;62.60;;;;;;6243993;22;43860;-64
2022/07/16 16:24:29;;;;;;;3.38;0.90;;;23.00;62.60;;;;;;6243249;22;43724;-64
2022/07/16 16:26:56;;;;;;;1.17;0.70;;;23.00;62.60;;;;;;6242473;22;43360;-64
2022/07/16 16:29:23;;;;;;;1.02;0.80;;;23.00;62.60;;;;;;6212569;22;43422;-64
2022/07/16 16:31:51;;;;;;;1.00;0.85;;;23.00;62.60;;;;;;6212637;22;43571;-64
2022/07/16 16:34:18;;;;;;;1.17;0.80;;;23.00;62.60;;;;;;6211976;22;43975;-64
2022/07/16 16:36:46;;;;;;;1.88;0.80;;;23.00;62.60;;;;;;6212090;22;43406;-65
2022/07/16 16:39:13;;;;;;;1.50;0.90;;;22.90;62.70;;;;;;6209526;22;43471;-65
2022/07/16 16:41:40;;;;;;;1.83;0.70;;;22.90;62.60;;;;;;6211168;22;43442;-63
2022/07/16 16:44:08;;;;;;;1.38;0.70;;;22.90;62.60;;;;;;6211961;22;44776;-64
2022/07/16 16:46:35;;;;;;;1.15;0.70;;;22.90;62.60;;;;;;6210629;22;43880;-65
2022/07/16 16:49:03;;;;;;;1.00;0.65;;;22.90;62.60;;;;;;6212264;22;43512;-65
2022/07/16 16:51:32;;;;;;;1.83;0.90;;;22.90;62.60;;;;;;6211835;22;43559;-65
2022/07/16 16:54:00;;;;;;;2.03;0.90;;;22.90;62.70;;;;;;6211354;22;43831;-64
2022/07/16 16:56:27;;;;;;;2.38;1.00;;;22.90;62.60;;;;;;6211604;22;43435;-64
2022/07/16 16:58:55;;;;;;;1.90;0.90;;;22.90;62.50;;;;;;6212830;22;43353;-65
2022/07/16 17:01:23;;;;;;;1.48;0.80;;;22.90;62.50;;;;;;6212010;22;43555;-65
2022/07/16 17:03:51;;;;;;;2.85;0.77;;;22.90;62.60;;;;;;6212741;22;43966;-65
2022/07/16 17:06:19;;;;;;;1.58;0.75;;;22.90;62.50;;;;;;6212139;22;43894;-64
2022/07/16 17:08:48;;;;;;;1.95;0.85;;;22.90;62.60;;;;;;6211673;22;43420;-65
2022/07/16 17:11:16;;;;;;;2.47;0.80;;;22.90;62.60;;;;;;6184971;22;43528;-65
2022/07/16 17:13:44;;;;;;;1.98;0.90;;;22.90;62.60;;;;;;6184432;22;44278;-65
2022/07/16 17:16:12;;;;;;;1.33;1.02;;;22.90;62.60;;;;;;6210768;22;44132;-65
2022/07/16 17:18:39;;;;;;;0.77;0.70;;;22.80;62.60;;;;;;6210857;22;43384;-65
2022/07/16 17:21:07;;;;;;;1.40;0.75;;;22.80;62.60;;;;;;6212066;22;43567;-65
2022/07/16 17:23:34;;;;;;;0.70;0.70;;;22.80;62.60;;;;;;6212040;22;44006;-65
2022/07/16 17:26:02;;;;;;;1.85;0.80;;;22.80;62.60;;;;;;6211970;22;43808;-65
2022/07/16 17:28:30;;;;;;;1.40;0.90;;;22.80;62.70;;;;;;6229855;22;43340;-65
2022/07/16 17:31:08;;;;;;;1.50;0.90;;;22.80;63.40;;;;;;6242063;22;43428;-65
2022/07/16 17:33:36;;;;;;;1.08;0.80;;;22.80;62.90;;;;;;6242212;22;44011;-65
2022/07/16 17:36:04;;;;;;;1.63;1.00;;;22.70;63.00;;;;;;6241267;22;43379;-65
2022/07/16 17:38:31;;;;;;;1.25;0.80;;;22.70;62.90;;;;;;6241648;22;43787;-65
2022/07/16 17:41:00;;;;;;;1.23;0.80;;;22.70;62.90;;;;;;6233950;22;43526;-65
2022/07/16 17:43:35;;;;;;;1.20;0.63;;;22.70;63.20;;;;;;6239309;22;44015;-65
2022/07/16 17:46:03;;;;;;;1.20;0.88;;;22.70;63.20;;;;;;6239599;22;43468;-65
2022/07/16 17:51:18;;;;;;;1.08;0.77;;;22.70;63.00;;;;;;6239200;22;43481;-65
2022/07/16 17:53:46;;;;;;;2.25;0.82;;;22.70;63.00;;;;;;6239339;22;44380;-66
2022/07/16 17:56:14;;;;;;;1.73;0.80;;;22.70;62.90;;;;;;6239990;22;43810;-65
2022/07/16 17:58:41;;;;;;;2.58;1.10;;;22.70;63.00;;;;;;6239597;22;43492;-65
2022/07/16 18:01:13;;;;;;;1.60;0.95;;;22.70;63.00;;;;;;6240711;22;43484;-65
2022/07/16 18:03:41;;;;;;;1.35;1.00;;;22.70;62.80;;;;;;6213591;22;43896;-63
2022/07/16 18:06:08;;;;;;;0.70;0.70;;;22.70;62.90;;;;;;6241099;22;43425;-64
2022/07/16 18:08:36;;;;;;;0.82;0.82;;;22.70;63.00;;;;;;6241819;22;43964;-64
2022/07/16 18:11:07;;;;;;;0.90;0.80;;;22.70;63.10;;;;;;6239896;22;43511;-64
2022/07/16 18:13:36;;;;;;;1.00;0.85;;;22.70;63.10;;;;;;6243451;22;44784;-64
2022/07/16 18:16:04;;;;;;;1.10;0.77;;;22.70;63.10;;;;;;6242857;22;43330;-64
2022/07/16 18:18:32;;;;;;;0.90;0.90;;;22.70;63.20;;;;;;6189670;22;43446;-64
2022/07/16 18:21:00;;;;;;;2.05;0.70;;;22.60;63.10;;;;;;6242691;22;43590;-64
2022/07/16 18:23:32;;;;;;;1.33;0.70;;;22.60;63.10;;;;;;6242037;22;43986;-65
2022/07/16 18:26:00;;;;;;;1.10;1.00;;;22.70;63.10;;;;;;6240033;22;43366;-65
2022/07/16 18:28:27;;;;;;;1.38;0.77;;;22.60;62.80;;;;;;6241699;22;43407;-65
2022/07/16 18:31:00;;;;;;;1.60;0.98;;;22.60;62.90;;;;;;6242372;22;43486;-65
2022/07/16 18:33:29;;;;;;;1.52;0.88;;;22.60;62.80;;;;;;6239511;22;44252;-65
2022/07/16 18:36:02;;;;;;;1.20;0.90;;;22.70;62.70;;;;;;6191441;22;43504;-64